sensor_id;sensor_type;location;lat;lon;timestamp;temperature;humidity
15095;DHT22;7648;52.264;9.632;2023-02-28T00:02:20;0.50;99.90
15095;DHT22;7648;52.264;9.632;2023-02-28T00:06:23;0.50;99.90
15095;DHT22;7648;52.264;9.632;2023-02-28T00:10:28;0.50;99.90
15095;DHT22;7648;52.264;9.632;2023-02-28T00:14:31;0.60;99.90
15095;DHT22;7648;52.264;9.632;2023-02-28T00:18:33;0.60;99.90
15095;DHT22;7648;52.264;9.632;2023-02-28T00:22:35;0.60;99.90
15095;DHT22;7648;52.264;9.632;2023-02-28T00:26:37;0.60;99.90
15095;DHT22;7648;52.264;9.632;2023-02-28T00:30:41;0.70;99.90
15095;DHT22;7648;52.264;9.632;2023-02-28T00:34:43;0.60;99.90
15095;DHT22;7648;52.264;9.632;2023-02-28T00:38:44;0.60;99.90
15095;DHT22;7648;52.264;9.632;2023-02-28T00:42:46;0.50;99.90
15095;DHT22;7648;52.264;9.632;2023-02-28T00:46:50;0.60;99.90
15095;DHT22;7648;52.264;9.632;2023-02-28T00:50:52;0.60;99.90
15095;DHT22;7648;52.264;9.632;2023-02-28T00:54:54;0.60;99.90
15095;DHT22;7648;52.264;9.632;2023-02-28T00:58:56;0.50;99.90
15095;DHT22;7648;52.264;9.632;2023-02-28T01:02:59;0.40;99.90
15095;DHT22;7648;52.264;9.632;2023-02-28T01:07:01;0.40;99.90
15095;DHT22;7648;52.264;9.632;2023-02-28T01:11:08;0.40;99.90
15095;DHT22;7648;52.264;9.632;2023-02-28T01:15:11;0.30;99.90
15095;DHT22;7648;52.264;9.632;2023-02-28T01:19:14;0.20;99.90
15095;DHT22;7648;52.264;9.632;2023-02-28T01:23:16;0.20;99.90
15095;DHT22;7648;52.264;9.632;2023-02-28T01:27:18;0.10;99.90
15095;DHT22;7648;52.264;9.632;2023-02-28T01:31:21;0.00;99.90
15095;DHT22;7648;52.264;9.632;2023-02-28T01:35:25;-0.20;99.90
15095;DHT22;7648;52.264;9.632;2023-02-28T01:39:27;-0.30;99.90
15095;DHT22;7648;52.264;9.632;2023-02-28T01:43:31;-0.40;99.90
15095;DHT22;7648;52.264;9.632;2023-02-28T01:47:38;-0.50;99.90
15095;DHT22;7648;52.264;9.632;2023-02-28T01:51:44;-0.60;99.90
15095;DHT22;7648;52.264;9.632;2023-02-28T01:55:52;-0.60;99.90
15095;DHT22;7648;52.264;9.632;2023-02-28T01:59:58;-0.60;99.90
15095;DHT22;7648;52.264;9.632;2023-02-28T02:04:02;-0.60;99.90
15095;DHT22;7648;52.264;9.632;2023-02-28T02:08:09;-0.60;99.90
15095;DHT22;7648;52.264;9.632;2023-02-28T02:12:20;-0.70;99.90
15095;DHT22;7648;52.264;9.632;2023-02-28T02:16:36;-0.70;99.90
15095;DHT22;7648;52.264;9.632;2023-02-28T02:21:04;-0.80;99.90
15095;DHT22;7648;52.264;9.632;2023-02-28T02:25:24;-0.80;99.90
15095;DHT22;7648;52.264;9.632;2023-02-28T02:29:54;-0.80;99.90
15095;DHT22;7648;52.264;9.632;2023-02-28T02:34:22;-0.90;99.90
15095;DHT22;7648;52.264;9.632;2023-02-28T02:38:33;-1.10;99.90
15095;DHT22;7648;52.264;9.632;2023-02-28T02:42:40;-1.30;99.90
15095;DHT22;7648;52.264;9.632;2023-02-28T02:46:45;-1.30;99.90
15095;DHT22;7648;52.264;9.632;2023-02-28T02:50:54;-1.20;99.90
15095;DHT22;7648;52.264;9.632;2023-02-28T02:54:57;-1.30;99.90
15095;DHT22;7648;52.264;9.632;2023-02-28T02:59:02;-1.30;99.90
15095;DHT22;7648;52.264;9.632;2023-02-28T03:03:07;-1.30;99.90
15095;DHT22;7648;52.264;9.632;2023-02-28T03:07:12;-1.30;99.90
15095;DHT22;7648;52.264;9.632;2023-02-28T03:11:14;-1.30;99.90
15095;DHT22;7648;52.264;9.632;2023-02-28T03:15:23;-1.30;99.90
15095;DHT22;7648;52.264;9.632;2023-02-28T03:19:46;-1.40;99.90
15095;DHT22;7648;52.264;9.632;2023-02-28T03:23:56;-1.60;99.90
15095;DHT22;7648;52.264;9.632;2023-02-28T03:28:04;-1.70;99.90
15095;DHT22;7648;52.264;9.632;2023-02-28T03:32:12;-1.60;99.90
15095;DHT22;7648;52.264;9.632;2023-02-28T03:36:21;-1.70;99.90
15095;DHT22;7648;52.264;9.632;2023-02-28T03:40:30;-1.70;99.90
15095;DHT22;7648;52.264;9.632;2023-02-28T03:44:36;-1.70;99.90
15095;DHT22;7648;52.264;9.632;2023-02-28T03:48:43;-1.80;99.90
15095;DHT22;7648;52.264;9.632;2023-02-28T03:52:49;-1.80;99.90
15095;DHT22;7648;52.264;9.632;2023-02-28T03:56:57;-1.80;99.90
15095;DHT22;7648;52.264;9.632;2023-02-28T04:01:06;-1.80;99.90
15095;DHT22;7648;52.264;9.632;2023-02-28T04:05:09;-1.80;99.90
15095;DHT22;7648;52.264;9.632;2023-02-28T04:09:13;-1.90;99.90
15095;DHT22;7648;52.264;9.632;2023-02-28T04:13:16;-1.90;99.90
15095;DHT22;7648;52.264;9.632;2023-02-28T04:17:18;-2.00;99.90
15095;DHT22;7648;52.264;9.632;2023-02-28T04:21:20;-1.90;99.90
15095;DHT22;7648;52.264;9.632;2023-02-28T04:25:22;-2.00;99.90
15095;DHT22;7648;52.264;9.632;2023-02-28T04:29:27;-2.00;99.90
15095;DHT22;7648;52.264;9.632;2023-02-28T04:33:32;-2.00;99.90
15095;DHT22;7648;52.264;9.632;2023-02-28T04:37:34;-1.90;99.90
15095;DHT22;7648;52.264;9.632;2023-02-28T04:41:37;-2.00;99.90
15095;DHT22;7648;52.264;9.632;2023-02-28T04:45:40;-1.90;99.90
15095;DHT22;7648;52.264;9.632;2023-02-28T04:49:42;-2.00;99.90
15095;DHT22;7648;52.264;9.632;2023-02-28T04:53:44;-2.00;99.90
15095;DHT22;7648;52.264;9.632;2023-02-28T04:57:46;-2.00;99.90
15095;DHT22;7648;52.264;9.632;2023-02-28T05:01:50;-2.00;99.90
15095;DHT22;7648;52.264;9.632;2023-02-28T05:05:52;-2.00;99.90
15095;DHT22;7648;52.264;9.632;2023-02-28T05:09:53;-2.10;99.90
15095;DHT22;7648;52.264;9.632;2023-02-28T05:13:55;-2.10;99.90
15095;DHT22;7648;52.264;9.632;2023-02-28T05:17:59;-2.10;99.90
15095;DHT22;7648;52.264;9.632;2023-02-28T05:22:00;-2.10;99.90
15095;DHT22;7648;52.264;9.632;2023-02-28T05:26:03;-2.10;99.90
15095;DHT22;7648;52.264;9.632;2023-02-28T05:30:06;-2.20;99.90
15095;DHT22;7648;52.264;9.632;2023-02-28T05:34:12;-2.20;99.90
15095;DHT22;7648;52.264;9.632;2023-02-28T05:38:16;-2.20;99.90
15095;DHT22;7648;52.264;9.632;2023-02-28T05:42:18;-2.20;99.90
15095;DHT22;7648;52.264;9.632;2023-02-28T05:46:20;-2.20;99.90
15095;DHT22;7648;52.264;9.632;2023-02-28T05:50:23;-2.10;99.90
15095;DHT22;7648;52.264;9.632;2023-02-28T05:54:25;-2.10;99.90
15095;DHT22;7648;52.264;9.632;2023-02-28T05:58:27;-2.10;99.90
15095;DHT22;7648;52.264;9.632;2023-02-28T06:02:31;-2.00;99.90
15095;DHT22;7648;52.264;9.632;2023-02-28T06:06:34;-2.10;99.90
15095;DHT22;7648;52.264;9.632;2023-02-28T06:10:37;-2.00;99.90
15095;DHT22;7648;52.264;9.632;2023-02-28T06:14:39;-2.00;99.90
15095;DHT22;7648;52.264;9.632;2023-02-28T06:18:41;-2.00;99.90
15095;DHT22;7648;52.264;9.632;2023-02-28T06:22:44;-2.00;99.90
15095;DHT22;7648;52.264;9.632;2023-02-28T06:26:46;-2.00;99.90
15095;DHT22;7648;52.264;9.632;2023-02-28T06:30:48;-2.00;99.90
15095;DHT22;7648;52.264;9.632;2023-02-28T06:34:50;-2.00;99.90
15095;DHT22;7648;52.264;9.632;2023-02-28T06:38:54;-2.00;99.90
15095;DHT22;7648;52.264;9.632;2023-02-28T06:42:56;-2.00;99.90
15095;DHT22;7648;52.264;9.632;2023-02-28T06:46:58;-1.90;99.90
15095;DHT22;7648;52.264;9.632;2023-02-28T06:51:05;-1.90;99.90
15095;DHT22;7648;52.264;9.632;2023-02-28T06:55:09;-1.90;99.90
15095;DHT22;7648;52.264;9.632;2023-02-28T06:59:11;-1.90;99.90
15095;DHT22;7648;52.264;9.632;2023-02-28T07:03:13;-1.90;99.90
15095;DHT22;7648;52.264;9.632;2023-02-28T07:07:15;-2.00;99.90
15095;DHT22;7648;52.264;9.632;2023-02-28T07:11:19;-2.00;99.90
15095;DHT22;7648;52.264;9.632;2023-02-28T07:15:22;-2.00;99.90
15095;DHT22;7648;52.264;9.632;2023-02-28T07:19:24;-1.90;99.90
15095;DHT22;7648;52.264;9.632;2023-02-28T07:23:27;-1.90;99.90
15095;DHT22;7648;52.264;9.632;2023-02-28T07:27:30;-1.80;99.90
15095;DHT22;7648;52.264;9.632;2023-02-28T07:31:32;-1.70;99.90
15095;DHT22;7648;52.264;9.632;2023-02-28T07:35:34;-1.60;99.90
15095;DHT22;7648;52.264;9.632;2023-02-28T07:39:36;-1.50;99.90
15095;DHT22;7648;52.264;9.632;2023-02-28T07:43:39;-1.50;99.90
15095;DHT22;7648;52.264;9.632;2023-02-28T07:47:42;-1.30;99.90
15095;DHT22;7648;52.264;9.632;2023-02-28T07:51:44;-1.20;99.90
15095;DHT22;7648;52.264;9.632;2023-02-28T07:55:46;-1.10;99.90
15095;DHT22;7648;52.264;9.632;2023-02-28T07:59:49;-0.90;99.90
15095;DHT22;7648;52.264;9.632;2023-02-28T08:03:51;-0.80;99.90
15095;DHT22;7648;52.264;9.632;2023-02-28T08:07:54;-0.80;99.90
15095;DHT22;7648;52.264;9.632;2023-02-28T08:11:56;-0.70;99.90
15095;DHT22;7648;52.264;9.632;2023-02-28T08:16:01;-0.50;99.90
15095;DHT22;7648;52.264;9.632;2023-02-28T08:20:04;-0.40;99.90
15095;DHT22;7648;52.264;9.632;2023-02-28T08:24:07;-0.30;99.90
15095;DHT22;7648;52.264;9.632;2023-02-28T08:28:08;-0.30;99.90
15095;DHT22;7648;52.264;9.632;2023-02-28T08:32:12;-0.20;99.90
15095;DHT22;7648;52.264;9.632;2023-02-28T08:36:13;-0.10;99.90
15095;DHT22;7648;52.264;9.632;2023-02-28T08:40:16;-0.10;99.90
15095;DHT22;7648;52.264;9.632;2023-02-28T08:44:18;0.00;99.90
15095;DHT22;7648;52.264;9.632;2023-02-28T08:48:22;0.10;99.90
15095;DHT22;7648;52.264;9.632;2023-02-28T08:52:24;0.20;99.90
15095;DHT22;7648;52.264;9.632;2023-02-28T08:56:26;0.30;99.90
15095;DHT22;7648;52.264;9.632;2023-02-28T09:00:28;0.40;99.90
15095;DHT22;7648;52.264;9.632;2023-02-28T09:04:31;0.50;99.90
15095;DHT22;7648;52.264;9.632;2023-02-28T09:08:35;0.60;99.90
15095;DHT22;7648;52.264;9.632;2023-02-28T09:12:37;0.60;99.90
15095;DHT22;7648;52.264;9.632;2023-02-28T09:16:39;0.70;99.90
15095;DHT22;7648;52.264;9.632;2023-02-28T09:20:42;0.70;99.90
15095;DHT22;7648;52.264;9.632;2023-02-28T09:24:44;0.80;99.90
15095;DHT22;7648;52.264;9.632;2023-02-28T09:28:46;0.90;99.90
15095;DHT22;7648;52.264;9.632;2023-02-28T09:32:48;1.00;99.90
15095;DHT22;7648;52.264;9.632;2023-02-28T09:36:53;1.10;99.90
15095;DHT22;7648;52.264;9.632;2023-02-28T09:40:58;1.20;99.90
15095;DHT22;7648;52.264;9.632;2023-02-28T09:45:05;1.30;99.90
15095;DHT22;7648;52.264;9.632;2023-02-28T09:49:23;1.30;99.90
15095;DHT22;7648;52.264;9.632;2023-02-28T09:53:29;1.40;99.90
15095;DHT22;7648;52.264;9.632;2023-02-28T09:57:38;1.50;99.90
15095;DHT22;7648;52.264;9.632;2023-02-28T10:01:45;1.60;99.90
15095;DHT22;7648;52.264;9.632;2023-02-28T10:05:53;1.60;99.90
15095;DHT22;7648;52.264;9.632;2023-02-28T10:10:02;1.70;99.90
15095;DHT22;7648;52.264;9.632;2023-02-28T10:14:12;2.00;99.90
15095;DHT22;7648;52.264;9.632;2023-02-28T10:18:21;2.10;99.90
15095;DHT22;7648;52.264;9.632;2023-02-28T10:22:27;2.50;99.90
15095;DHT22;7648;52.264;9.632;2023-02-28T10:26:33;2.80;99.90
15095;DHT22;7648;52.264;9.632;2023-02-28T10:30:36;3.70;99.90
15095;DHT22;7648;52.264;9.632;2023-02-28T10:34:38;4.40;99.90
15095;DHT22;7648;52.264;9.632;2023-02-28T10:38:41;4.90;99.90
15095;DHT22;7648;52.264;9.632;2023-02-28T10:42:55;5.20;99.90
15095;DHT22;7648;52.264;9.632;2023-02-28T10:46:57;5.00;99.90
15095;DHT22;7648;52.264;9.632;2023-02-28T10:51:01;4.60;99.90
15095;DHT22;7648;52.264;9.632;2023-02-28T10:55:16;4.40;99.90
15095;DHT22;7648;52.264;9.632;2023-02-28T10:59:28;4.60;99.90
15095;DHT22;7648;52.264;9.632;2023-02-28T11:03:32;5.20;99.90
15095;DHT22;7648;52.264;9.632;2023-02-28T11:07:34;5.70;99.90
15095;DHT22;7648;52.264;9.632;2023-02-28T11:11:43;6.20;99.90
15095;DHT22;7648;52.264;9.632;2023-02-28T11:15:52;6.60;99.90
15095;DHT22;7648;52.264;9.632;2023-02-28T11:19:57;7.10;99.90
15095;DHT22;7648;52.264;9.632;2023-02-28T11:24:02;7.90;99.90
15095;DHT22;7648;52.264;9.632;2023-02-28T11:28:06;8.60;99.90
15095;DHT22;7648;52.264;9.632;2023-02-28T11:32:26;7.80;99.90
15095;DHT22;7648;52.264;9.632;2023-02-28T11:36:31;6.90;99.90
15095;DHT22;7648;52.264;9.632;2023-02-28T11:40:42;6.30;99.90
15095;DHT22;7648;52.264;9.632;2023-02-28T11:44:58;5.90;99.90
15095;DHT22;7648;52.264;9.632;2023-02-28T11:49:15;5.70;99.90
15095;DHT22;7648;52.264;9.632;2023-02-28T11:53:31;5.50;99.90
15095;DHT22;7648;52.264;9.632;2023-02-28T11:57:56;5.30;99.90
15095;DHT22;7648;52.264;9.632;2023-02-28T12:02:16;5.20;99.90
15095;DHT22;7648;52.264;9.632;2023-02-28T12:06:26;5.10;99.90
15095;DHT22;7648;52.264;9.632;2023-02-28T12:10:35;5.10;99.90
15095;DHT22;7648;52.264;9.632;2023-02-28T12:15:02;5.10;99.90
15095;DHT22;7648;52.264;9.632;2023-02-28T12:19:16;5.20;99.90
15095;DHT22;7648;52.264;9.632;2023-02-28T12:23:43;5.20;99.90
15095;DHT22;7648;52.264;9.632;2023-02-28T12:27:51;5.40;99.90
15095;DHT22;7648;52.264;9.632;2023-02-28T12:31:58;5.50;99.90
15095;DHT22;7648;52.264;9.632;2023-02-28T12:36:04;5.40;99.90
15095;DHT22;7648;52.264;9.632;2023-02-28T12:40:11;5.30;99.90
15095;DHT22;7648;52.264;9.632;2023-02-28T12:44:17;5.20;99.90
15095;DHT22;7648;52.264;9.632;2023-02-28T12:48:25;5.20;99.90
15095;DHT22;7648;52.264;9.632;2023-02-28T12:52:35;5.30;99.90
15095;DHT22;7648;52.264;9.632;2023-02-28T12:56:44;5.20;99.90
15095;DHT22;7648;52.264;9.632;2023-02-28T13:01:21;5.20;99.90
15095;DHT22;7648;52.264;9.632;2023-02-28T13:05:50;5.30;99.90
15095;DHT22;7648;52.264;9.632;2023-02-28T13:09:56;5.30;99.90
15095;DHT22;7648;52.264;9.632;2023-02-28T13:14:02;5.30;99.90
15095;DHT22;7648;52.264;9.632;2023-02-28T13:18:05;5.10;99.90
15095;DHT22;7648;52.264;9.632;2023-02-28T13:22:17;4.90;99.90
15095;DHT22;7648;52.264;9.632;2023-02-28T13:26:21;4.80;99.90
15095;DHT22;7648;52.264;9.632;2023-02-28T13:39:48;5.00;99.90
15095;DHT22;7648;52.264;9.632;2023-02-28T13:44:01;5.20;99.90
15095;DHT22;7648;52.264;9.632;2023-02-28T13:48:05;5.30;99.90
15095;DHT22;7648;52.264;9.632;2023-02-28T13:52:20;5.40;99.90
15095;DHT22;7648;52.264;9.632;2023-02-28T13:56:32;5.50;99.90
15095;DHT22;7648;52.264;9.632;2023-02-28T14:00:48;5.50;99.90
15095;DHT22;7648;52.264;9.632;2023-02-28T14:05:00;5.50;99.90
15095;DHT22;7648;52.264;9.632;2023-02-28T14:09:15;5.50;99.90
15095;DHT22;7648;52.264;9.632;2023-02-28T14:13:41;5.60;99.90
15095;DHT22;7648;52.264;9.632;2023-02-28T14:17:45;5.60;99.90
15095;DHT22;7648;52.264;9.632;2023-02-28T14:21:59;5.60;99.90
15095;DHT22;7648;52.264;9.632;2023-02-28T14:26:14;5.70;99.90
15095;DHT22;7648;52.264;9.632;2023-02-28T14:30:43;5.90;99.90
15095;DHT22;7648;52.264;9.632;2023-02-28T14:34:54;6.00;99.90
15095;DHT22;7648;52.264;9.632;2023-02-28T14:39:00;6.10;99.90
15095;DHT22;7648;52.264;9.632;2023-02-28T14:43:16;6.20;99.90
15095;DHT22;7648;52.264;9.632;2023-02-28T14:47:20;6.30;99.90
15095;DHT22;7648;52.264;9.632;2023-02-28T14:51:24;6.40;99.90
15095;DHT22;7648;52.264;9.632;2023-02-28T14:55:29;6.40;99.90
15095;DHT22;7648;52.264;9.632;2023-02-28T14:59:35;6.50;99.90
15095;DHT22;7648;52.264;9.632;2023-02-28T15:03:38;6.50;99.90
15095;DHT22;7648;52.264;9.632;2023-02-28T15:07:43;6.50;99.90
15095;DHT22;7648;52.264;9.632;2023-02-28T15:11:47;6.60;99.90
15095;DHT22;7648;52.264;9.632;2023-02-28T15:15:54;6.60;99.90
15095;DHT22;7648;52.264;9.632;2023-02-28T15:19:57;6.70;99.90
15095;DHT22;7648;52.264;9.632;2023-02-28T15:24:04;6.70;99.90
15095;DHT22;7648;52.264;9.632;2023-02-28T15:28:12;6.90;99.90
15095;DHT22;7648;52.264;9.632;2023-02-28T15:32:26;7.20;99.90
15095;DHT22;7648;52.264;9.632;2023-02-28T15:36:30;7.40;99.90
15095;DHT22;7648;52.264;9.632;2023-02-28T15:40:37;7.50;99.90
15095;DHT22;7648;52.264;9.632;2023-02-28T15:44:40;7.70;99.90
15095;DHT22;7648;52.264;9.632;2023-02-28T15:48:48;7.80;99.90
15095;DHT22;7648;52.264;9.632;2023-02-28T15:52:52;7.90;99.90
15095;DHT22;7648;52.264;9.632;2023-02-28T15:56:56;8.00;99.90
15095;DHT22;7648;52.264;9.632;2023-02-28T16:01:16;7.80;99.90
15095;DHT22;7648;52.264;9.632;2023-02-28T16:05:23;7.30;99.90
15095;DHT22;7648;52.264;9.632;2023-02-28T16:09:28;6.80;99.90
15095;DHT22;7648;52.264;9.632;2023-02-28T16:13:31;6.30;99.90
15095;DHT22;7648;52.264;9.632;2023-02-28T16:17:35;6.00;99.90
15095;DHT22;7648;52.264;9.632;2023-02-28T16:21:41;5.80;99.90
15095;DHT22;7648;52.264;9.632;2023-02-28T16:25:44;5.60;99.90
15095;DHT22;7648;52.264;9.632;2023-02-28T16:29:47;5.50;99.90
15095;DHT22;7648;52.264;9.632;2023-02-28T16:33:49;5.20;99.90
15095;DHT22;7648;52.264;9.632;2023-02-28T16:37:53;5.10;99.90
15095;DHT22;7648;52.264;9.632;2023-02-28T16:41:55;5.00;99.90
15095;DHT22;7648;52.264;9.632;2023-02-28T16:45:57;4.90;99.90
15095;DHT22;7648;52.264;9.632;2023-02-28T16:49:59;4.70;99.90
15095;DHT22;7648;52.264;9.632;2023-02-28T16:54:03;4.50;99.90
15095;DHT22;7648;52.264;9.632;2023-02-28T16:58:05;4.40;99.90
15095;DHT22;7648;52.264;9.632;2023-02-28T17:02:09;4.20;99.90
15095;DHT22;7648;52.264;9.632;2023-02-28T17:06:17;4.10;99.90
15095;DHT22;7648;52.264;9.632;2023-02-28T17:10:24;3.90;99.90
15095;DHT22;7648;52.264;9.632;2023-02-28T17:14:26;3.80;99.90
15095;DHT22;7648;52.264;9.632;2023-02-28T17:18:28;3.70;99.90
15095;DHT22;7648;52.264;9.632;2023-02-28T17:22:34;3.50;99.90
15095;DHT22;7648;52.264;9.632;2023-02-28T17:26:37;3.40;99.90
15095;DHT22;7648;52.264;9.632;2023-02-28T17:30:39;3.20;99.90
15095;DHT22;7648;52.264;9.632;2023-02-28T17:34:47;3.00;99.90
15095;DHT22;7648;52.264;9.632;2023-02-28T17:38:49;2.90;99.90
15095;DHT22;7648;52.264;9.632;2023-02-28T17:42:52;2.70;99.90
15095;DHT22;7648;52.264;9.632;2023-02-28T17:46:55;2.40;99.90
15095;DHT22;7648;52.264;9.632;2023-02-28T17:50:57;2.30;99.90
15095;DHT22;7648;52.264;9.632;2023-02-28T17:54:59;2.10;99.90
15095;DHT22;7648;52.264;9.632;2023-02-28T17:59:02;1.90;99.90
15095;DHT22;7648;52.264;9.632;2023-02-28T18:03:04;1.70;99.90
15095;DHT22;7648;52.264;9.632;2023-02-28T18:07:08;1.50;99.90
15095;DHT22;7648;52.264;9.632;2023-02-28T18:11:10;1.50;99.90
15095;DHT22;7648;52.264;9.632;2023-02-28T18:15:20;1.50;99.90
15095;DHT22;7648;52.264;9.632;2023-02-28T18:19:23;1.50;99.90
15095;DHT22;7648;52.264;9.632;2023-02-28T18:23:25;1.40;99.90
15095;DHT22;7648;52.264;9.632;2023-02-28T18:27:26;1.30;99.90
15095;DHT22;7648;52.264;9.632;2023-02-28T18:31:30;1.20;99.90
15095;DHT22;7648;52.264;9.632;2023-02-28T18:35:32;1.20;99.90
15095;DHT22;7648;52.264;9.632;2023-02-28T18:39:38;1.10;99.90
15095;DHT22;7648;52.264;9.632;2023-02-28T18:43:43;1.10;99.90
15095;DHT22;7648;52.264;9.632;2023-02-28T18:47:46;1.00;99.90
15095;DHT22;7648;52.264;9.632;2023-02-28T18:51:48;1.00;99.90
15095;DHT22;7648;52.264;9.632;2023-02-28T18:55:50;0.90;99.90
15095;DHT22;7648;52.264;9.632;2023-02-28T18:59:52;0.80;99.90
15095;DHT22;7648;52.264;9.632;2023-02-28T19:03:55;0.70;99.90
15095;DHT22;7648;52.264;9.632;2023-02-28T19:07:58;0.70;99.90
15095;DHT22;7648;52.264;9.632;2023-02-28T19:12:00;0.60;99.90
15095;DHT22;7648;52.264;9.632;2023-02-28T19:16:02;0.50;99.90
15095;DHT22;7648;52.264;9.632;2023-02-28T19:20:08;0.50;99.90
15095;DHT22;7648;52.264;9.632;2023-02-28T19:24:10;0.40;99.90
15095;DHT22;7648;52.264;9.632;2023-02-28T19:28:12;0.30;99.90
15095;DHT22;7648;52.264;9.632;2023-02-28T19:32:14;0.30;99.90
15095;DHT22;7648;52.264;9.632;2023-02-28T19:36:17;0.10;99.90
15095;DHT22;7648;52.264;9.632;2023-02-28T19:40:19;0.10;99.90
15095;DHT22;7648;52.264;9.632;2023-02-28T19:44:21;0.10;99.90
15095;DHT22;7648;52.264;9.632;2023-02-28T19:48:23;0.00;99.90
15095;DHT22;7648;52.264;9.632;2023-02-28T19:52:28;0.00;99.90
15095;DHT22;7648;52.264;9.632;2023-02-28T19:56:30;-0.10;99.90
15095;DHT22;7648;52.264;9.632;2023-02-28T20:00:32;-0.10;99.90
15095;DHT22;7648;52.264;9.632;2023-02-28T20:04:34;-0.20;99.90
15095;DHT22;7648;52.264;9.632;2023-02-28T20:08:38;-0.20;99.90
15095;DHT22;7648;52.264;9.632;2023-02-28T20:12:40;-0.30;99.90
15095;DHT22;7648;52.264;9.632;2023-02-28T20:16:42;-0.40;99.90
15095;DHT22;7648;52.264;9.632;2023-02-28T20:20:44;-0.40;99.90
15095;DHT22;7648;52.264;9.632;2023-02-28T20:24:47;-0.40;99.90
15095;DHT22;7648;52.264;9.632;2023-02-28T20:28:49;-0.30;99.90
15095;DHT22;7648;52.264;9.632;2023-02-28T20:32:51;-0.30;99.90
15095;DHT22;7648;52.264;9.632;2023-02-28T20:36:53;-0.40;99.90
15095;DHT22;7648;52.264;9.632;2023-02-28T20:40:59;-0.40;99.90
15095;DHT22;7648;52.264;9.632;2023-02-28T20:45:02;-0.50;99.90
15095;DHT22;7648;52.264;9.632;2023-02-28T20:49:04;-0.50;99.90
15095;DHT22;7648;52.264;9.632;2023-02-28T20:53:06;-0.60;99.90
15095;DHT22;7648;52.264;9.632;2023-02-28T20:57:09;-0.60;99.90
15095;DHT22;7648;52.264;9.632;2023-02-28T21:01:13;-0.60;99.90
15095;DHT22;7648;52.264;9.632;2023-02-28T21:05:16;-0.60;99.90
15095;DHT22;7648;52.264;9.632;2023-02-28T21:09:18;-0.60;99.90
15095;DHT22;7648;52.264;9.632;2023-02-28T21:13:21;-0.60;99.90
15095;DHT22;7648;52.264;9.632;2023-02-28T21:17:23;-0.60;99.90
15095;DHT22;7648;52.264;9.632;2023-02-28T21:21:25;-0.60;99.90
15095;DHT22;7648;52.264;9.632;2023-02-28T21:25:28;-0.70;99.90
15095;DHT22;7648;52.264;9.632;2023-02-28T21:29:32;-0.70;99.90
15095;DHT22;7648;52.264;9.632;2023-02-28T21:33:35;-0.70;99.90
15095;DHT22;7648;52.264;9.632;2023-02-28T21:37:37;-0.70;99.90
15095;DHT22;7648;52.264;9.632;2023-02-28T21:41:39;-0.70;99.90
15095;DHT22;7648;52.264;9.632;2023-02-28T21:45:43;-0.70;99.90
15095;DHT22;7648;52.264;9.632;2023-02-28T21:49:45;-0.70;99.90
15095;DHT22;7648;52.264;9.632;2023-02-28T21:53:47;-0.80;99.90
15095;DHT22;7648;52.264;9.632;2023-02-28T21:57:50;-0.80;99.90
15095;DHT22;7648;52.264;9.632;2023-02-28T22:01:53;-0.80;99.90
15095;DHT22;7648;52.264;9.632;2023-02-28T22:05:55;-0.80;99.90
15095;DHT22;7648;52.264;9.632;2023-02-28T22:09:57;-0.90;99.90
15095;DHT22;7648;52.264;9.632;2023-02-28T22:13:59;-0.80;99.90
15095;DHT22;7648;52.264;9.632;2023-02-28T22:18:03;-0.90;99.90
15095;DHT22;7648;52.264;9.632;2023-02-28T22:22:05;-1.00;99.90
15095;DHT22;7648;52.264;9.632;2023-02-28T22:26:09;-1.00;99.90
15095;DHT22;7648;52.264;9.632;2023-02-28T22:30:12;-1.10;99.90
15095;DHT22;7648;52.264;9.632;2023-02-28T22:34:15;-1.10;99.90
15095;DHT22;7648;52.264;9.632;2023-02-28T22:38:17;-1.10;99.90
15095;DHT22;7648;52.264;9.632;2023-02-28T22:42:19;-1.20;99.90
15095;DHT22;7648;52.264;9.632;2023-02-28T22:46:22;-1.20;99.90
15095;DHT22;7648;52.264;9.632;2023-02-28T22:50:26;-1.20;99.90
15095;DHT22;7648;52.264;9.632;2023-02-28T22:54:27;-1.30;99.90
15095;DHT22;7648;52.264;9.632;2023-02-28T22:58:29;-1.30;99.90
15095;DHT22;7648;52.264;9.632;2023-02-28T23:02:31;-1.40;99.90
15095;DHT22;7648;52.264;9.632;2023-02-28T23:06:36;-1.40;99.90
15095;DHT22;7648;52.264;9.632;2023-02-28T23:10:42;-1.40;99.90
15095;DHT22;7648;52.264;9.632;2023-02-28T23:14:44;-1.40;99.90
15095;DHT22;7648;52.264;9.632;2023-02-28T23:18:46;-1.40;99.90
15095;DHT22;7648;52.264;9.632;2023-02-28T23:22:49;-1.50;99.90
15095;DHT22;7648;52.264;9.632;2023-02-28T23:26:53;-1.50;99.90
15095;DHT22;7648;52.264;9.632;2023-02-28T23:30:59;-1.50;99.90
15095;DHT22;7648;52.264;9.632;2023-02-28T23:35:04;-1.50;99.90
15095;DHT22;7648;52.264;9.632;2023-02-28T23:39:09;-1.60;99.90
15095;DHT22;7648;52.264;9.632;2023-02-28T23:43:10;-1.60;99.90
15095;DHT22;7648;52.264;9.632;2023-02-28T23:47:12;-1.60;99.90
15095;DHT22;7648;52.264;9.632;2023-02-28T23:51:17;-1.70;99.90
15095;DHT22;7648;52.264;9.632;2023-02-28T23:55:20;-1.70;99.90
15095;DHT22;7648;52.264;9.632;2023-02-28T23:59:22;-1.70;99.90
